createdAt,value
2018-06-16T00:05:42.585Z,6.27
2018-06-16T00:08:10.609Z,6.70
2018-06-16T00:10:38.696Z,6.17
2018-06-16T00:13:06.378Z,5.77
2018-06-16T00:15:34.427Z,5.67
2018-06-16T00:18:02.099Z,6.07
2018-06-16T00:20:29.817Z,5.47
2018-06-16T00:22:57.515Z,5.73
2018-06-16T00:25:26.804Z,5.73
2018-06-16T00:27:56.550Z,5.70
2018-06-16T00:30:24.217Z,5.77
2018-06-16T00:32:52.743Z,5.20
2018-06-16T00:35:20.472Z,5.50
2018-06-16T00:37:48.185Z,5.80
2018-06-16T00:40:16.020Z,5.83
2018-06-16T00:42:43.994Z,4.90
2018-06-16T00:45:11.744Z,5.23
2018-06-16T00:47:39.838Z,5.40
2018-06-16T00:50:07.584Z,5.60
2018-06-16T00:52:35.568Z,5.33
2018-06-16T00:55:03.343Z,5.40
2018-06-16T00:57:45.378Z,5.57
2018-06-16T01:00:14.803Z,5.27
2018-06-16T01:02:42.499Z,5.80
2018-06-16T01:05:10.476Z,5.30
2018-06-16T01:07:38.655Z,5.00
2018-06-16T01:10:08.361Z,5.80
2018-06-16T01:12:36.540Z,5.07
2018-06-16T01:15:04.552Z,5.73
2018-06-16T01:17:33.297Z,5.30
2018-06-16T01:20:01.970Z,5.37
2018-06-16T01:22:30.232Z,5.07
2018-06-16T01:24:58.331Z,5.07
2018-06-16T01:27:27.119Z,4.97
2018-06-16T01:29:54.945Z,5.17
2018-06-16T01:32:22.692Z,5.77
2018-06-16T01:34:50.593Z,5.10
2018-06-16T01:37:18.750Z,5.67
2018-06-16T01:39:47.479Z,5.20
2018-06-16T01:42:15.211Z,5.90
2018-06-16T01:44:42.953Z,5.17
2018-06-16T01:47:10.677Z,5.30
2018-06-16T01:49:38.371Z,5.20
2018-06-16T01:52:06.346Z,5.70
2018-06-16T01:54:34.058Z,5.67
2018-06-16T01:57:01.970Z,5.67
2018-06-16T01:59:29.655Z,5.50
2018-06-16T02:01:57.647Z,5.50
2018-06-16T02:04:25.325Z,5.23
2018-06-16T02:06:53.031Z,5.27
2018-06-16T02:09:20.756Z,5.63
2018-06-16T02:11:49.435Z,5.60
2018-06-16T02:14:17.120Z,5.43
2018-06-16T02:16:45.084Z,5.30
2018-06-16T02:19:13.927Z,5.63
2018-06-16T02:21:41.983Z,5.17
2018-06-16T02:24:13.303Z,5.00
2018-06-16T02:26:40.985Z,6.07
2018-06-16T02:29:08.979Z,5.23
2018-06-16T02:31:36.795Z,4.90
2018-06-16T02:34:05.302Z,5.37
2018-06-16T02:36:33.795Z,5.60
2018-06-16T02:39:01.526Z,5.10
2018-06-16T02:41:29.443Z,4.80
2018-06-16T02:43:57.439Z,5.77
2018-06-16T02:46:25.603Z,5.50
2018-06-16T02:48:53.948Z,5.00
2018-06-16T02:51:21.657Z,5.33
2018-06-16T02:53:49.371Z,5.70
2018-06-16T02:56:17.395Z,5.30
2018-06-16T02:58:45.347Z,5.20
2018-06-16T03:01:13.069Z,5.57
2018-06-16T03:03:41.075Z,5.30
2018-06-16T03:06:08.748Z,4.90
2018-06-16T03:08:36.439Z,5.30
2018-06-16T03:11:04.221Z,5.20
2018-06-16T03:13:31.985Z,5.40
2018-06-16T03:15:59.661Z,5.37
2018-06-16T03:18:27.631Z,5.40
2018-06-16T03:20:55.631Z,5.63
2018-06-16T03:23:24.133Z,5.40
2018-06-16T03:25:51.847Z,5.53
2018-06-16T03:28:19.512Z,5.43
2018-06-16T03:30:47.239Z,5.07
2018-06-16T03:43:00.209Z,5.00
2018-06-16T03:45:27.902Z,5.10
2018-06-16T03:47:55.668Z,5.43
2018-06-16T03:50:23.395Z,5.17
2018-06-16T03:52:51.544Z,5.60
2018-06-16T03:55:19.622Z,5.10
2018-06-16T03:57:47.344Z,5.13
2018-06-16T04:00:15.024Z,5.23
2018-06-16T04:02:43.135Z,5.07
2018-06-16T04:05:10.853Z,4.83
2018-06-16T04:07:38.555Z,4.80
2018-06-16T04:10:06.607Z,3.97
2018-06-16T04:12:34.876Z,4.20
2018-06-16T04:15:02.632Z,4.10
2018-06-16T04:17:30.340Z,3.73
2018-06-16T04:19:58.053Z,4.07
2018-06-16T04:22:25.687Z,3.60
2018-06-16T04:24:53.595Z,4.57
2018-06-16T04:27:21.281Z,4.50
2018-06-16T04:29:49.052Z,4.33
2018-06-16T04:32:16.966Z,3.57
2018-06-16T04:34:45.023Z,3.60
2018-06-16T04:37:12.913Z,3.80
2018-06-16T04:39:40.549Z,3.70
2018-06-16T04:42:08.529Z,3.20
2018-06-16T04:44:36.474Z,3.57
2018-06-16T04:47:04.404Z,4.07
2018-06-16T04:49:32.401Z,3.90
2018-06-16T04:52:00.360Z,4.13
2018-06-16T04:54:28.032Z,3.50
2018-06-16T04:56:56.032Z,4.10
2018-06-16T04:59:24.675Z,3.43
2018-06-16T05:01:52.758Z,4.20
2018-06-16T05:04:20.438Z,3.90
2018-06-16T05:06:48.105Z,4.37
2018-06-16T05:09:16.141Z,3.67
2018-06-16T05:11:43.831Z,4.00
2018-06-16T05:14:11.515Z,4.13
2018-06-16T05:16:39.171Z,3.53
2018-06-16T05:19:07.193Z,4.53
2018-06-16T05:21:34.843Z,4.33
2018-06-16T05:24:03.267Z,4.13
2018-06-16T05:26:30.926Z,4.40
2018-06-16T05:28:58.968Z,3.80
2018-06-16T05:31:26.750Z,3.80
2018-06-16T05:33:54.387Z,3.70
2018-06-16T05:36:22.409Z,3.80
2018-06-16T05:38:50.055Z,3.57
2018-06-16T05:41:17.682Z,3.60
2018-06-16T05:43:45.660Z,3.70
2018-06-16T05:46:14.096Z,3.80
2018-06-16T05:48:42.318Z,3.40
2018-06-16T05:51:09.971Z,4.00
2018-06-16T05:53:37.967Z,3.37
2018-06-16T05:56:05.735Z,2.97
2018-06-16T05:58:33.429Z,3.53
2018-06-16T06:01:01.093Z,3.30
2018-06-16T06:03:28.770Z,3.70
2018-06-16T06:15:41.510Z,4.10
2018-06-16T06:18:09.243Z,4.50
2018-06-16T06:20:37.217Z,5.23
2018-06-16T06:23:05.121Z,3.43
2018-06-16T06:25:32.762Z,3.37
2018-06-16T06:40:55.454Z,3.30
2018-06-16T06:43:23.266Z,3.47
2018-06-16T06:45:51.226Z,2.90
2018-06-16T06:48:18.905Z,2.80
2018-06-16T06:50:46.676Z,2.70
2018-06-16T06:53:14.643Z,2.90
2018-06-16T06:55:42.383Z,2.47
2018-06-16T06:58:10.036Z,3.50
2018-06-16T07:00:37.679Z,2.70
2018-06-16T07:03:05.532Z,2.43
2018-06-16T07:05:33.666Z,2.70
2018-06-16T07:08:01.308Z,2.63
2018-06-16T07:10:29.251Z,2.37
2018-06-16T07:12:57.225Z,2.60
2018-06-16T07:15:25.185Z,3.30
2018-06-16T07:17:52.987Z,2.23
2018-06-16T07:20:20.657Z,2.50
2018-06-16T07:22:48.615Z,2.30
2018-06-16T07:25:17.111Z,2.30
2018-06-16T07:27:44.741Z,2.03
2018-06-16T07:30:12.432Z,2.07
2018-06-16T07:32:40.661Z,1.80
2018-06-16T07:35:08.676Z,1.80
2018-06-16T07:37:36.319Z,2.00
2018-06-16T07:40:04.002Z,1.60
2018-06-16T07:42:33.188Z,1.80
2018-06-16T07:45:00.821Z,2.10
2018-06-16T07:47:28.482Z,1.90
2018-06-16T07:49:56.315Z,1.73
2018-06-16T07:52:24.632Z,1.83
2018-06-16T07:54:52.293Z,1.80
2018-06-16T07:57:20.241Z,1.80
2018-06-16T07:59:48.178Z,1.60
2018-06-16T08:12:01.244Z,1.90
2018-06-16T08:14:29.099Z,1.23
2018-06-16T08:16:56.797Z,1.40
2018-06-16T08:19:24.503Z,1.73
2018-06-16T08:21:52.528Z,1.60
2018-06-16T08:24:20.500Z,1.47
2018-06-16T08:26:48.428Z,1.50
2018-06-16T08:29:16.518Z,1.63
2018-06-16T08:31:44.478Z,1.60
2018-06-16T08:34:12.156Z,1.40
2018-06-16T08:36:40.244Z,1.40
2018-06-16T08:39:09.948Z,1.80
2018-06-16T08:41:37.688Z,1.73
2018-06-16T08:44:06.080Z,2.00
2018-06-16T08:46:34.164Z,1.73
2018-06-16T08:49:01.842Z,1.97
2018-06-16T08:51:30.191Z,1.67
2018-06-16T08:53:58.008Z,1.83
2018-06-16T08:56:25.704Z,1.70
2018-06-16T08:58:53.679Z,1.67
2018-06-16T09:01:21.778Z,1.63
2018-06-16T09:03:49.567Z,1.43
2018-06-16T09:06:17.475Z,1.40
2018-06-16T09:08:45.561Z,1.50
2018-06-16T09:11:13.619Z,1.63
2018-06-16T09:13:42.267Z,1.33
2018-06-16T09:16:10.299Z,1.50
2018-06-16T09:18:38.937Z,1.30
2018-06-16T09:21:07.172Z,1.60
2018-06-16T09:23:35.839Z,1.40
2018-06-16T09:26:04.429Z,1.60
2018-06-16T09:28:32.508Z,1.27
2018-06-16T09:31:00.559Z,1.50
2018-06-16T09:33:28.561Z,1.20
2018-06-16T09:35:56.264Z,1.60
2018-06-16T09:38:23.935Z,1.13
2018-06-16T09:40:52.599Z,1.30
2018-06-16T09:43:20.308Z,1.33
2018-06-16T09:45:48.815Z,1.43
2018-06-16T09:48:16.775Z,1.30
2018-06-16T09:50:44.511Z,1.40
2018-06-16T09:53:12.481Z,1.40
2018-06-16T09:55:40.037Z,1.40
2018-06-16T09:58:07.716Z,1.60
2018-06-16T10:00:39.935Z,1.47
2018-06-16T10:03:08.157Z,1.53
2018-06-16T10:05:36.702Z,1.50
2018-06-16T10:08:04.533Z,1.63
2018-06-16T10:10:32.522Z,1.40
2018-06-16T10:13:00.468Z,1.50
2018-06-16T10:15:28.625Z,1.70
2018-06-16T10:17:56.600Z,1.50
2018-06-16T10:20:24.559Z,1.60
2018-06-16T10:22:52.866Z,1.73
2018-06-16T10:25:21.373Z,1.40
2018-06-16T10:37:38.858Z,1.60
2018-06-16T10:40:06.554Z,1.60
2018-06-16T10:42:34.238Z,1.50
2018-06-16T10:45:01.992Z,1.20
2018-06-16T10:47:33.412Z,1.60
2018-06-16T10:50:02.351Z,1.30
2018-06-16T10:52:30.046Z,1.70
2018-06-16T10:54:57.888Z,1.10
2018-06-16T10:57:26.056Z,1.40
2018-06-16T10:59:53.744Z,1.53
2018-06-16T11:02:21.488Z,1.70
2018-06-16T11:04:49.177Z,1.60
2018-06-16T11:07:17.040Z,1.50
2018-06-16T11:09:44.731Z,1.50
2018-06-16T11:12:12.425Z,1.70
2018-06-16T11:14:40.406Z,1.57
2018-06-16T11:17:08.218Z,1.60
2018-06-16T11:19:35.883Z,1.50
2018-06-16T11:22:03.576Z,1.47
2018-06-16T11:34:11.303Z,1.70
2018-06-16T11:36:39.100Z,1.50
2018-06-16T11:39:08.506Z,1.53
2018-06-16T11:51:21.213Z,1.90
2018-06-16T11:53:49.175Z,2.10
2018-06-16T11:56:16.958Z,2.00
2018-06-16T11:58:44.623Z,2.23
2018-06-16T12:01:12.309Z,2.17
2018-06-16T12:03:39.985Z,1.90
2018-06-16T12:06:07.664Z,1.77
2018-06-16T12:08:35.582Z,1.93
2018-06-16T12:11:03.318Z,1.90
2018-06-16T12:13:30.982Z,1.90
2018-06-16T12:15:58.918Z,1.30
2018-06-16T12:18:27.880Z,1.93
2018-06-16T12:20:55.546Z,1.97
2018-06-16T12:23:23.203Z,1.77
2018-06-16T12:25:51.009Z,1.93
2018-06-16T12:28:18.686Z,2.00
2018-06-16T12:30:46.339Z,1.90
2018-06-16T12:33:13.991Z,2.60
2018-06-16T12:35:42.128Z,2.20
2018-06-16T12:38:10.056Z,2.30
2018-06-16T12:40:37.700Z,2.27
2018-06-16T12:43:05.426Z,2.10
2018-06-16T12:45:33.102Z,3.40
2018-06-16T12:48:01.265Z,2.70
2018-06-16T12:50:28.952Z,2.60
2018-06-16T12:52:57.231Z,3.00
2018-06-16T12:55:24.957Z,2.97
2018-06-16T12:57:52.663Z,2.50
2018-06-16T13:00:20.980Z,2.80
2018-06-16T13:02:48.628Z,2.67
2018-06-16T13:05:16.698Z,2.70
2018-06-16T13:07:47.106Z,2.80
2018-06-16T13:10:14.781Z,2.83
2018-06-16T13:12:42.683Z,2.30
2018-06-16T13:15:10.380Z,2.10
2018-06-16T13:17:38.191Z,2.10
2018-06-16T13:20:05.946Z,2.20
2018-06-16T13:22:33.912Z,2.73
2018-06-16T13:25:01.861Z,2.50
2018-06-16T13:27:29.669Z,2.67
2018-06-16T13:29:57.336Z,2.23
2018-06-16T13:32:26.901Z,2.03
2018-06-16T13:34:54.909Z,2.23
2018-06-16T13:37:23.085Z,2.77
2018-06-16T13:39:51.031Z,2.10
2018-06-16T13:42:18.972Z,2.30
2018-06-16T13:44:47.579Z,2.30
2018-06-16T13:47:15.753Z,2.10
2018-06-16T13:49:43.433Z,2.10
2018-06-16T13:52:11.723Z,2.10
2018-06-16T13:54:39.977Z,2.17
2018-06-16T13:57:07.819Z,2.30
2018-06-16T13:59:36.101Z,1.90
2018-06-16T14:02:04.139Z,2.63
2018-06-16T14:04:32.292Z,2.70
2018-06-16T14:07:02.186Z,2.23
2018-06-16T14:09:29.864Z,2.27
2018-06-16T14:11:57.811Z,2.17
2018-06-16T14:14:25.451Z,2.30
2018-06-16T14:16:53.266Z,2.13
2018-06-16T14:19:21.127Z,2.30
2018-06-16T14:21:48.814Z,1.67
2018-06-16T14:24:16.496Z,2.20
2018-06-16T14:26:44.312Z,1.90
2018-06-16T14:29:12.405Z,2.30
2018-06-16T14:31:40.105Z,1.87
2018-06-16T14:34:07.771Z,1.80
2018-06-16T14:36:36.762Z,2.03
2018-06-16T14:39:06.192Z,1.93
2018-06-16T14:41:33.973Z,2.13
2018-06-16T14:44:01.698Z,2.20
2018-06-16T14:46:32.607Z,2.27
2018-06-16T14:49:01.029Z,2.37
2018-06-16T14:51:28.696Z,2.03
2018-06-16T14:53:56.506Z,1.90
2018-06-16T14:56:25.865Z,1.87
2018-06-16T14:58:53.542Z,1.90
2018-06-16T15:01:21.205Z,1.90
2018-06-16T15:03:48.970Z,1.90
2018-06-16T15:06:17.836Z,2.23
2018-06-16T15:08:45.508Z,2.10
2018-06-16T15:11:13.199Z,2.20
2018-06-16T15:13:40.897Z,1.77
2018-06-16T15:16:09.728Z,2.03
2018-06-16T15:18:38.264Z,1.90
2018-06-16T15:21:05.962Z,1.83
2018-06-16T15:23:34.008Z,2.20
2018-06-16T15:26:02.018Z,2.20
2018-06-16T15:28:30.480Z,2.50
2018-06-16T15:30:58.928Z,3.00
2018-06-16T15:33:27.000Z,2.77
2018-06-16T15:35:54.790Z,2.30
2018-06-16T15:38:22.460Z,2.20
2018-06-16T15:40:50.100Z,2.60
2018-06-16T15:43:17.804Z,3.00
2018-06-16T15:45:45.486Z,2.77
2018-06-16T15:48:13.803Z,2.60
2018-06-16T15:50:41.460Z,2.43
2018-06-16T15:53:09.734Z,2.13
2018-06-16T15:55:37.488Z,2.20
2018-06-16T15:58:05.157Z,2.33
2018-06-16T16:00:32.834Z,2.10
2018-06-16T16:03:00.649Z,2.17
2018-06-16T16:05:28.306Z,2.10
2018-06-16T16:07:56.072Z,1.90
2018-06-16T16:10:23.694Z,2.43
2018-06-16T16:12:51.362Z,1.77
2018-06-16T16:15:19.010Z,1.83
2018-06-16T16:17:46.705Z,1.70
2018-06-16T16:20:14.392Z,2.17
2018-06-16T16:22:42.084Z,2.20
2018-06-16T16:25:09.796Z,1.80
2018-06-16T16:27:37.776Z,2.00
2018-06-16T16:30:05.826Z,2.00
2018-06-16T16:32:33.810Z,2.27
2018-06-16T16:35:01.663Z,3.03
2018-06-16T16:37:29.416Z,3.67
2018-06-16T16:39:57.466Z,3.60
2018-06-16T16:42:25.597Z,3.27
2018-06-16T16:44:53.568Z,5.93
2018-06-16T16:47:21.241Z,4.07
2018-06-16T16:49:49.238Z,3.90
2018-06-16T16:52:16.904Z,4.60
2018-06-16T16:54:44.959Z,3.77
2018-06-16T16:57:13.310Z,3.90
2018-06-16T16:59:41.312Z,3.40
2018-06-16T17:02:09.002Z,3.33
2018-06-16T17:04:36.697Z,2.40
2018-06-16T17:07:04.398Z,2.27
2018-06-16T17:09:32.448Z,2.70
2018-06-16T17:12:00.105Z,2.63
2018-06-16T17:14:27.782Z,2.23
2018-06-16T17:16:55.760Z,2.57
2018-06-16T17:19:23.521Z,2.00
2018-06-16T17:21:51.141Z,2.33
2018-06-16T17:24:18.846Z,2.47
2018-06-16T17:26:47.176Z,2.07
2018-06-16T17:29:15.422Z,1.70
2018-06-16T17:31:43.310Z,2.43
2018-06-16T17:34:11.442Z,1.90
2018-06-16T17:36:39.519Z,1.90
2018-06-16T17:39:08.827Z,1.93
2018-06-16T17:41:36.482Z,1.60
2018-06-16T17:44:04.149Z,1.83
2018-06-16T17:46:37.914Z,1.50
2018-06-16T17:49:05.581Z,1.50
2018-06-16T17:51:33.248Z,1.50
2018-06-16T17:54:00.931Z,1.50
2018-06-16T17:56:28.948Z,1.60
2018-06-16T17:58:56.964Z,2.00
2018-06-16T18:01:24.672Z,1.50
2018-06-16T18:03:52.341Z,1.50
2018-06-16T18:06:20.284Z,1.40
2018-06-16T18:08:48.176Z,1.10
2018-06-16T18:11:16.804Z,1.40
2018-06-16T18:13:44.782Z,1.23
2018-06-16T18:16:12.544Z,1.53
2018-06-16T18:18:40.261Z,1.27
2018-06-16T18:21:09.250Z,1.60
2018-06-16T18:23:37.043Z,1.60
2018-06-16T18:26:04.894Z,1.60
2018-06-16T18:28:32.687Z,2.00
2018-06-16T18:31:00.422Z,1.60
2018-06-16T18:33:28.115Z,1.43
2018-06-16T18:35:55.875Z,1.50
2018-06-16T18:38:24.412Z,1.73
2018-06-16T18:40:52.360Z,1.60
2018-06-16T18:43:20.092Z,2.00
2018-06-16T18:45:47.783Z,2.00
2018-06-16T18:48:20.979Z,2.00
2018-06-16T18:50:48.778Z,1.70
2018-06-16T18:53:16.519Z,1.73
2018-06-16T18:55:44.508Z,1.90
2018-06-16T18:58:18.425Z,2.10
2018-06-16T19:00:46.184Z,2.27
2018-06-16T19:03:14.079Z,1.70
2018-06-16T19:05:42.732Z,1.80
2018-06-16T19:08:10.844Z,1.97
2018-06-16T19:10:38.518Z,1.90
2018-06-16T19:13:06.279Z,1.70
2018-06-16T19:15:34.599Z,2.00
2018-06-16T19:18:06.255Z,2.47
2018-06-16T19:20:34.755Z,2.13
2018-06-16T19:23:02.609Z,2.10
2018-06-16T19:25:30.556Z,1.73
2018-06-16T19:28:02.646Z,2.00
2018-06-16T19:30:30.376Z,1.80
2018-06-16T19:32:58.204Z,2.00
2018-06-16T19:35:25.933Z,1.73
2018-06-16T19:37:53.626Z,1.90
2018-06-16T19:40:21.346Z,1.93
2018-06-16T19:42:49.910Z,1.40
2018-06-16T19:45:17.702Z,1.73
2018-06-16T19:47:46.427Z,1.37
2018-06-16T19:50:14.152Z,1.93
2018-06-16T19:52:41.832Z,1.47
2018-06-16T19:55:09.521Z,1.93
2018-06-16T19:57:39.424Z,1.47
2018-06-16T20:00:07.258Z,1.43
2018-06-16T20:02:34.974Z,1.80
2018-06-16T20:05:02.860Z,1.67
2018-06-16T20:07:30.915Z,1.40
2018-06-16T20:09:58.833Z,1.63
2018-06-16T20:12:27.236Z,1.53
2018-06-16T20:17:58.350Z,1.50
2018-06-16T20:20:26.034Z,1.67
2018-06-16T20:22:53.734Z,1.40
2018-06-16T20:25:21.452Z,1.50
2018-06-16T20:27:49.186Z,1.50
2018-06-16T20:30:19.101Z,1.50
2018-06-16T20:32:46.772Z,1.60
2018-06-16T20:35:14.464Z,1.27
2018-06-16T20:37:42.211Z,1.60
2018-06-16T20:40:09.911Z,1.07
2018-06-16T20:42:37.587Z,1.67
2018-06-16T20:45:05.330Z,1.80
2018-06-16T20:47:33.179Z,1.67
2018-06-16T20:50:00.942Z,1.20
2018-06-16T20:52:28.627Z,1.63
2018-06-16T20:54:56.409Z,1.57
2018-06-16T20:57:24.132Z,1.30
2018-06-16T20:59:51.820Z,1.80
2018-06-16T21:02:19.661Z,1.50
2018-06-16T21:04:47.472Z,1.50
2018-06-16T21:07:15.161Z,1.63
2018-06-16T21:09:42.874Z,1.60
2018-06-16T21:12:10.627Z,1.47
2018-06-16T21:14:38.437Z,1.67
2018-06-16T21:17:06.224Z,1.70
2018-06-16T21:19:34.070Z,1.30
2018-06-16T21:22:02.246Z,1.50
2018-06-16T21:24:30.020Z,1.20
2018-06-16T21:26:57.824Z,1.40
2018-06-16T21:29:25.648Z,1.40
2018-06-16T21:31:53.470Z,1.53
2018-06-16T21:34:21.304Z,1.30
2018-06-16T21:36:49.082Z,1.30
2018-06-16T21:39:16.848Z,1.50
2018-06-16T21:41:44.562Z,1.30
2018-06-16T21:44:12.327Z,1.33
2018-06-16T21:46:40.108Z,1.20
2018-06-16T21:49:07.850Z,1.13
2018-06-16T21:51:35.660Z,1.30
2018-06-16T21:54:03.404Z,1.70
2018-06-16T21:56:31.246Z,1.23
2018-06-16T21:58:58.985Z,1.30
2018-06-16T22:01:32.535Z,1.40
2018-06-16T22:04:00.532Z,1.30
2018-06-16T22:06:28.308Z,1.27
2018-06-16T22:08:56.113Z,1.70
2018-06-16T22:11:23.867Z,1.40
2018-06-16T22:13:51.650Z,1.43
2018-06-16T22:16:19.348Z,1.53
2018-06-16T22:18:50.183Z,1.70
2018-06-16T22:21:17.989Z,1.30
2018-06-16T22:23:45.865Z,1.47
2018-06-16T22:26:13.606Z,1.70
2018-06-16T22:28:41.411Z,1.40
2018-06-16T22:31:09.279Z,1.40
2018-06-16T22:33:37.098Z,1.30
2018-06-16T22:36:04.958Z,1.30
2018-06-16T22:38:32.757Z,1.57
2018-06-16T22:41:00.595Z,1.73
2018-06-16T22:43:28.396Z,1.50
2018-06-16T22:45:56.997Z,1.30
2018-06-16T22:48:24.822Z,1.40
2018-06-16T22:50:52.568Z,1.60
2018-06-16T22:53:20.319Z,1.47
2018-06-16T22:55:48.032Z,1.30
2018-06-16T22:58:15.822Z,1.57
2018-06-16T23:00:43.556Z,1.20
2018-06-16T23:03:11.354Z,1.50
2018-06-16T23:05:39.092Z,1.47
2018-06-16T23:08:06.840Z,1.77
2018-06-16T23:10:34.692Z,1.60
2018-06-16T23:13:02.364Z,1.27
2018-06-16T23:15:30.118Z,1.20
2018-06-16T23:17:57.884Z,1.47
2018-06-16T23:20:25.687Z,1.50
2018-06-16T23:22:53.468Z,1.60
2018-06-16T23:25:21.211Z,1.40
2018-06-16T23:27:49.128Z,1.40
2018-06-16T23:30:16.905Z,1.37
2018-06-16T23:32:44.676Z,1.60
2018-06-16T23:35:12.524Z,1.63
2018-06-16T23:37:40.272Z,1.40
2018-06-16T23:40:07.998Z,1.50
2018-06-16T23:42:35.716Z,1.60
2018-06-16T23:45:03.625Z,1.50
2018-06-16T23:47:31.438Z,1.70
2018-06-16T23:49:59.215Z,1.70
2018-06-16T23:52:27.094Z,2.00
2018-06-16T23:54:55.200Z,1.50
2018-06-16T23:57:23.067Z,1.60
2018-06-16T23:59:50.986Z,1.60
